sensor_id;sensor_type;location;lat;lon;timestamp;P1;durP1;ratioP1;P2;durP2;ratioP2
75689;SDS011;64303;53.118;9.044;2024-02-15T00:00:29;15.40;;;11.65;;
75689;SDS011;64303;53.118;9.044;2024-02-15T00:03:17;12.30;;;10.32;;
75689;SDS011;64303;53.118;9.044;2024-02-15T00:05:43;14.75;;;11.82;;
75689;SDS011;64303;53.118;9.044;2024-02-15T00:08:13;14.32;;;12.55;;
75689;SDS011;64303;53.118;9.044;2024-02-15T00:10:40;14.13;;;10.80;;
75689;SDS011;64303;53.118;9.044;2024-02-15T00:13:07;15.23;;;11.73;;
75689;SDS011;64303;53.118;9.044;2024-02-15T00:15:33;12.82;;;11.23;;
75689;SDS011;64303;53.118;9.044;2024-02-15T00:18:02;13.20;;;9.35;;
75689;SDS011;64303;53.118;9.044;2024-02-15T00:20:29;12.73;;;7.22;;
75689;SDS011;64303;53.118;9.044;2024-02-15T00:22:56;14.32;;;12.48;;
75689;SDS011;64303;53.118;9.044;2024-02-15T00:25:24;17.58;;;14.35;;
75689;SDS011;64303;53.118;9.044;2024-02-15T00:27:51;17.98;;;11.70;;
75689;SDS011;64303;53.118;9.044;2024-02-15T00:30:17;17.15;;;14.20;;
75689;SDS011;64303;53.118;9.044;2024-02-15T00:32:44;14.73;;;12.88;;
75689;SDS011;64303;53.118;9.044;2024-02-15T00:35:11;17.08;;;12.40;;
75689;SDS011;64303;53.118;9.044;2024-02-15T00:37:38;15.55;;;13.07;;
75689;SDS011;64303;53.118;9.044;2024-02-15T00:42:35;20.33;;;14.13;;
75689;SDS011;64303;53.118;9.044;2024-02-15T00:47:29;18.70;;;13.40;;
75689;SDS011;64303;53.118;9.044;2024-02-15T00:49:55;19.13;;;14.52;;
75689;SDS011;64303;53.118;9.044;2024-02-15T00:52:22;18.95;;;14.90;;
75689;SDS011;64303;53.118;9.044;2024-02-15T00:54:49;22.77;;;17.50;;
75689;SDS011;64303;53.118;9.044;2024-02-15T00:57:16;22.13;;;16.92;;
75689;SDS011;64303;53.118;9.044;2024-02-15T00:59:44;20.10;;;13.98;;
75689;SDS011;64303;53.118;9.044;2024-02-15T01:02:11;21.33;;;15.25;;
75689;SDS011;64303;53.118;9.044;2024-02-15T01:04:38;23.98;;;15.25;;
75689;SDS011;64303;53.118;9.044;2024-02-15T01:07:05;22.05;;;14.80;;
75689;SDS011;64303;53.118;9.044;2024-02-15T01:09:33;20.35;;;13.20;;
75689;SDS011;64303;53.118;9.044;2024-02-15T01:11:59;21.35;;;14.77;;
75689;SDS011;64303;53.118;9.044;2024-02-15T01:14:28;23.60;;;16.95;;
75689;SDS011;64303;53.118;9.044;2024-02-15T01:16:57;20.65;;;14.40;;
75689;SDS011;64303;53.118;9.044;2024-02-15T01:19:24;22.95;;;14.10;;
75689;SDS011;64303;53.118;9.044;2024-02-15T01:21:51;23.80;;;15.32;;
75689;SDS011;64303;53.118;9.044;2024-02-15T01:24:18;24.88;;;17.27;;
75689;SDS011;64303;53.118;9.044;2024-02-15T01:26:45;25.45;;;16.85;;
75689;SDS011;64303;53.118;9.044;2024-02-15T01:29:13;24.38;;;15.90;;
75689;SDS011;64303;53.118;9.044;2024-02-15T01:31:40;22.83;;;14.95;;
75689;SDS011;64303;53.118;9.044;2024-02-15T01:34:07;26.33;;;16.83;;
75689;SDS011;64303;53.118;9.044;2024-02-15T01:36:34;23.25;;;16.95;;
75689;SDS011;64303;53.118;9.044;2024-02-15T01:39:01;26.98;;;17.48;;
75689;SDS011;64303;53.118;9.044;2024-02-15T01:41:28;25.70;;;15.75;;
75689;SDS011;64303;53.118;9.044;2024-02-15T01:43:54;28.02;;;14.90;;
75689;SDS011;64303;53.118;9.044;2024-02-15T01:46:21;25.10;;;17.30;;
75689;SDS011;64303;53.118;9.044;2024-02-15T01:48:48;26.90;;;17.08;;
75689;SDS011;64303;53.118;9.044;2024-02-15T01:51:17;29.40;;;18.08;;
75689;SDS011;64303;53.118;9.044;2024-02-15T01:53:44;24.20;;;15.75;;
75689;SDS011;64303;53.118;9.044;2024-02-15T01:56:11;26.17;;;16.67;;
75689;SDS011;64303;53.118;9.044;2024-02-15T01:58:40;22.73;;;14.68;;
75689;SDS011;64303;53.118;9.044;2024-02-15T02:01:07;24.75;;;17.23;;
75689;SDS011;64303;53.118;9.044;2024-02-15T02:03:34;23.48;;;15.40;;
75689;SDS011;64303;53.118;9.044;2024-02-15T02:06:01;23.58;;;15.60;;
75689;SDS011;64303;53.118;9.044;2024-02-15T02:08:30;22.48;;;15.68;;
75689;SDS011;64303;53.118;9.044;2024-02-15T02:10:57;24.80;;;15.82;;
75689;SDS011;64303;53.118;9.044;2024-02-15T02:13:23;24.20;;;12.18;;
75689;SDS011;64303;53.118;9.044;2024-02-15T02:15:50;24.50;;;16.20;;
75689;SDS011;64303;53.118;9.044;2024-02-15T02:18:17;25.95;;;15.82;;
75689;SDS011;64303;53.118;9.044;2024-02-15T02:20:44;24.58;;;15.15;;
75689;SDS011;64303;53.118;9.044;2024-02-15T02:23:13;23.90;;;17.38;;
75689;SDS011;64303;53.118;9.044;2024-02-15T02:25:42;22.25;;;14.20;;
75689;SDS011;64303;53.118;9.044;2024-02-15T02:28:09;22.17;;;14.73;;
75689;SDS011;64303;53.118;9.044;2024-02-15T02:30:36;22.92;;;16.02;;
75689;SDS011;64303;53.118;9.044;2024-02-15T02:33:10;21.75;;;15.80;;
75689;SDS011;64303;53.118;9.044;2024-02-15T02:35:41;24.70;;;16.13;;
75689;SDS011;64303;53.118;9.044;2024-02-15T02:40:35;21.30;;;13.88;;
75689;SDS011;64303;53.118;9.044;2024-02-15T02:43:19;21.33;;;12.48;;
75689;SDS011;64303;53.118;9.044;2024-02-15T02:45:45;19.67;;;12.20;;
75689;SDS011;64303;53.118;9.044;2024-02-15T02:48:12;22.52;;;14.25;;
75689;SDS011;64303;53.118;9.044;2024-02-15T02:50:39;18.70;;;12.77;;
75689;SDS011;64303;53.118;9.044;2024-02-15T02:53:05;23.45;;;15.35;;
75689;SDS011;64303;53.118;9.044;2024-02-15T02:55:35;21.33;;;14.73;;
75689;SDS011;64303;53.118;9.044;2024-02-15T02:58:01;23.30;;;16.23;;
75689;SDS011;64303;53.118;9.044;2024-02-15T03:00:32;17.35;;;10.88;;
75689;SDS011;64303;53.118;9.044;2024-02-15T03:02:58;21.92;;;13.93;;
75689;SDS011;64303;53.118;9.044;2024-02-15T03:05:25;16.83;;;12.45;;
75689;SDS011;64303;53.118;9.044;2024-02-15T03:07:52;20.63;;;14.10;;
75689;SDS011;64303;53.118;9.044;2024-02-15T03:10:19;22.15;;;14.27;;
75689;SDS011;64303;53.118;9.044;2024-02-15T03:12:46;21.35;;;16.65;;
75689;SDS011;64303;53.118;9.044;2024-02-15T03:15:13;21.90;;;15.77;;
75689;SDS011;64303;53.118;9.044;2024-02-15T03:17:42;20.35;;;13.85;;
75689;SDS011;64303;53.118;9.044;2024-02-15T03:20:09;21.33;;;14.88;;
75689;SDS011;64303;53.118;9.044;2024-02-15T03:22:38;20.75;;;13.38;;
75689;SDS011;64303;53.118;9.044;2024-02-15T03:25:05;22.00;;;15.73;;
75689;SDS011;64303;53.118;9.044;2024-02-15T03:30:00;21.70;;;15.35;;
75689;SDS011;64303;53.118;9.044;2024-02-15T03:32:27;29.38;;;14.68;;
75689;SDS011;64303;53.118;9.044;2024-02-15T03:34:55;21.98;;;14.23;;
75689;SDS011;64303;53.118;9.044;2024-02-15T03:37:22;22.92;;;13.55;;
75689;SDS011;64303;53.118;9.044;2024-02-15T03:39:49;23.85;;;17.42;;
75689;SDS011;64303;53.118;9.044;2024-02-15T03:42:15;27.63;;;17.60;;
75689;SDS011;64303;53.118;9.044;2024-02-15T03:44:42;24.20;;;13.60;;
75689;SDS011;64303;53.118;9.044;2024-02-15T03:47:09;24.05;;;15.05;;
75689;SDS011;64303;53.118;9.044;2024-02-15T03:49:39;25.45;;;17.33;;
75689;SDS011;64303;53.118;9.044;2024-02-15T03:52:08;26.60;;;16.30;;
75689;SDS011;64303;53.118;9.044;2024-02-15T03:54:36;23.02;;;15.98;;
75689;SDS011;64303;53.118;9.044;2024-02-15T03:57:02;19.48;;;13.32;;
75689;SDS011;64303;53.118;9.044;2024-02-15T03:59:31;23.80;;;16.67;;
75689;SDS011;64303;53.118;9.044;2024-02-15T04:02:00;26.42;;;16.45;;
75689;SDS011;64303;53.118;9.044;2024-02-15T04:04:29;23.02;;;16.17;;
75689;SDS011;64303;53.118;9.044;2024-02-15T04:06:56;23.92;;;16.73;;
75689;SDS011;64303;53.118;9.044;2024-02-15T04:09:24;22.27;;;15.55;;
75689;SDS011;64303;53.118;9.044;2024-02-15T04:11:51;26.13;;;16.40;;
75689;SDS011;64303;53.118;9.044;2024-02-15T04:14:18;26.52;;;15.10;;
75689;SDS011;64303;53.118;9.044;2024-02-15T04:16:45;24.85;;;17.10;;
75689;SDS011;64303;53.118;9.044;2024-02-15T04:19:11;23.92;;;13.32;;
75689;SDS011;64303;53.118;9.044;2024-02-15T04:21:38;25.13;;;15.82;;
75689;SDS011;64303;53.118;9.044;2024-02-15T04:24:05;25.05;;;17.10;;
75689;SDS011;64303;53.118;9.044;2024-02-15T04:26:33;23.60;;;17.02;;
75689;SDS011;64303;53.118;9.044;2024-02-15T04:29:02;26.40;;;12.75;;
75689;SDS011;64303;53.118;9.044;2024-02-15T04:31:29;25.63;;;14.90;;
75689;SDS011;64303;53.118;9.044;2024-02-15T04:33:58;30.40;;;16.92;;
75689;SDS011;64303;53.118;9.044;2024-02-15T04:36:24;27.77;;;18.05;;
75689;SDS011;64303;53.118;9.044;2024-02-15T04:38:52;28.13;;;17.45;;
75689;SDS011;64303;53.118;9.044;2024-02-15T04:41:19;27.10;;;18.10;;
75689;SDS011;64303;53.118;9.044;2024-02-15T04:43:49;30.67;;;14.90;;
75689;SDS011;64303;53.118;9.044;2024-02-15T04:46:17;28.20;;;18.17;;
75689;SDS011;64303;53.118;9.044;2024-02-15T04:48:46;27.63;;;19.67;;
75689;SDS011;64303;53.118;9.044;2024-02-15T04:51:14;29.88;;;16.15;;
75689;SDS011;64303;53.118;9.044;2024-02-15T04:53:41;19.95;;;12.35;;
75689;SDS011;64303;53.118;9.044;2024-02-15T04:56:08;23.83;;;15.95;;
75689;SDS011;64303;53.118;9.044;2024-02-15T04:58:39;24.15;;;14.82;;
75689;SDS011;64303;53.118;9.044;2024-02-15T05:01:13;21.35;;;15.23;;
75689;SDS011;64303;53.118;9.044;2024-02-15T05:03:40;22.75;;;12.55;;
75689;SDS011;64303;53.118;9.044;2024-02-15T05:06:07;22.42;;;15.40;;
75689;SDS011;64303;53.118;9.044;2024-02-15T05:08:35;25.13;;;15.32;;
75689;SDS011;64303;53.118;9.044;2024-02-15T05:11:03;24.27;;;11.77;;
75689;SDS011;64303;53.118;9.044;2024-02-15T05:13:32;23.27;;;15.25;;
75689;SDS011;64303;53.118;9.044;2024-02-15T05:15:59;23.65;;;14.10;;
75689;SDS011;64303;53.118;9.044;2024-02-15T05:18:27;25.13;;;15.43;;
75689;SDS011;64303;53.118;9.044;2024-02-15T05:20:55;23.77;;;15.82;;
75689;SDS011;64303;53.118;9.044;2024-02-15T05:23:22;23.88;;;15.50;;
75689;SDS011;64303;53.118;9.044;2024-02-15T05:25:49;22.40;;;14.10;;
75689;SDS011;64303;53.118;9.044;2024-02-15T05:28:16;23.50;;;12.25;;
75689;SDS011;64303;53.118;9.044;2024-02-15T05:30:43;23.77;;;13.50;;
75689;SDS011;64303;53.118;9.044;2024-02-15T05:33:10;23.10;;;14.75;;
75689;SDS011;64303;53.118;9.044;2024-02-15T05:35:37;29.23;;;17.13;;
75689;SDS011;64303;53.118;9.044;2024-02-15T05:38:06;24.15;;;16.10;;
75689;SDS011;64303;53.118;9.044;2024-02-15T05:40:33;24.85;;;11.25;;
75689;SDS011;64303;53.118;9.044;2024-02-15T05:43:00;24.48;;;14.60;;
75689;SDS011;64303;53.118;9.044;2024-02-15T05:45:30;25.42;;;18.13;;
75689;SDS011;64303;53.118;9.044;2024-02-15T05:48:03;30.23;;;17.05;;
75689;SDS011;64303;53.118;9.044;2024-02-15T05:50:32;25.63;;;16.33;;
75689;SDS011;64303;53.118;9.044;2024-02-15T05:53:00;23.33;;;14.55;;
75689;SDS011;64303;53.118;9.044;2024-02-15T05:57:54;27.17;;;15.07;;
75689;SDS011;64303;53.118;9.044;2024-02-15T06:00:21;28.42;;;15.95;;
75689;SDS011;64303;53.118;9.044;2024-02-15T06:02:48;25.80;;;16.38;;
75689;SDS011;64303;53.118;9.044;2024-02-15T06:05:15;28.23;;;15.95;;
75689;SDS011;64303;53.118;9.044;2024-02-15T06:07:43;23.38;;;15.82;;
75689;SDS011;64303;53.118;9.044;2024-02-15T06:10:12;24.83;;;15.38;;
75689;SDS011;64303;53.118;9.044;2024-02-15T06:12:40;26.17;;;15.95;;
75689;SDS011;64303;53.118;9.044;2024-02-15T06:15:07;27.27;;;17.52;;
75689;SDS011;64303;53.118;9.044;2024-02-15T06:17:40;24.20;;;13.02;;
75689;SDS011;64303;53.118;9.044;2024-02-15T06:20:10;28.05;;;18.95;;
75689;SDS011;64303;53.118;9.044;2024-02-15T06:22:39;23.63;;;14.52;;
75689;SDS011;64303;53.118;9.044;2024-02-15T06:25:07;24.60;;;13.23;;
75689;SDS011;64303;53.118;9.044;2024-02-15T06:27:37;26.42;;;16.13;;
75689;SDS011;64303;53.118;9.044;2024-02-15T06:30:06;24.85;;;13.20;;
75689;SDS011;64303;53.118;9.044;2024-02-15T06:32:51;27.67;;;16.63;;
75689;SDS011;64303;53.118;9.044;2024-02-15T06:35:35;30.00;;;16.90;;
75689;SDS011;64303;53.118;9.044;2024-02-15T06:38:31;25.63;;;11.93;;
75689;SDS011;64303;53.118;9.044;2024-02-15T06:41:15;27.83;;;17.52;;
75689;SDS011;64303;53.118;9.044;2024-02-15T06:43:45;28.00;;;14.82;;
75689;SDS011;64303;53.118;9.044;2024-02-15T06:46:12;25.73;;;15.27;;
75689;SDS011;64303;53.118;9.044;2024-02-15T06:48:41;23.00;;;10.85;;
75689;SDS011;64303;53.118;9.044;2024-02-15T06:51:11;26.13;;;12.95;;
75689;SDS011;64303;53.118;9.044;2024-02-15T06:53:40;25.50;;;15.95;;
75689;SDS011;64303;53.118;9.044;2024-02-15T06:56:08;24.67;;;14.95;;
75689;SDS011;64303;53.118;9.044;2024-02-15T06:58:35;21.25;;;15.93;;
75689;SDS011;64303;53.118;9.044;2024-02-15T07:01:03;23.95;;;13.60;;
75689;SDS011;64303;53.118;9.044;2024-02-15T07:03:30;21.98;;;15.18;;
75689;SDS011;64303;53.118;9.044;2024-02-15T07:05:58;20.88;;;13.55;;
75689;SDS011;64303;53.118;9.044;2024-02-15T07:08:25;20.58;;;13.10;;
75689;SDS011;64303;53.118;9.044;2024-02-15T07:10:51;23.08;;;13.85;;
75689;SDS011;64303;53.118;9.044;2024-02-15T07:13:18;20.50;;;14.10;;
75689;SDS011;64303;53.118;9.044;2024-02-15T07:15:45;23.20;;;14.38;;
75689;SDS011;64303;53.118;9.044;2024-02-15T07:18:15;23.52;;;15.15;;
75689;SDS011;64303;53.118;9.044;2024-02-15T07:20:45;24.90;;;15.73;;
75689;SDS011;64303;53.118;9.044;2024-02-15T07:23:11;27.67;;;17.58;;
75689;SDS011;64303;53.118;9.044;2024-02-15T07:25:38;23.30;;;14.30;;
75689;SDS011;64303;53.118;9.044;2024-02-15T07:28:05;22.70;;;14.43;;
75689;SDS011;64303;53.118;9.044;2024-02-15T07:30:33;28.17;;;15.90;;
75689;SDS011;64303;53.118;9.044;2024-02-15T07:33:00;24.27;;;15.82;;
75689;SDS011;64303;53.118;9.044;2024-02-15T07:35:28;19.85;;;13.50;;
75689;SDS011;64303;53.118;9.044;2024-02-15T07:37:55;23.58;;;15.73;;
75689;SDS011;64303;53.118;9.044;2024-02-15T07:40:23;24.25;;;14.75;;
75689;SDS011;64303;53.118;9.044;2024-02-15T07:42:54;26.50;;;15.30;;
75689;SDS011;64303;53.118;9.044;2024-02-15T07:45:21;26.45;;;15.93;;
75689;SDS011;64303;53.118;9.044;2024-02-15T07:47:48;25.05;;;15.48;;
75689;SDS011;64303;53.118;9.044;2024-02-15T07:50:15;23.55;;;15.20;;
75689;SDS011;64303;53.118;9.044;2024-02-15T07:52:47;24.45;;;15.52;;
75689;SDS011;64303;53.118;9.044;2024-02-15T07:55:14;23.73;;;13.70;;
75689;SDS011;64303;53.118;9.044;2024-02-15T07:57:41;23.70;;;12.98;;
75689;SDS011;64303;53.118;9.044;2024-02-15T08:00:07;26.20;;;17.42;;
75689;SDS011;64303;53.118;9.044;2024-02-15T08:02:37;29.05;;;17.08;;
75689;SDS011;64303;53.118;9.044;2024-02-15T08:05:06;22.98;;;17.35;;
75689;SDS011;64303;53.118;9.044;2024-02-15T08:07:36;25.75;;;16.23;;
75689;SDS011;64303;53.118;9.044;2024-02-15T08:10:06;26.08;;;16.35;;
75689;SDS011;64303;53.118;9.044;2024-02-15T08:12:38;22.90;;;14.98;;
75689;SDS011;64303;53.118;9.044;2024-02-15T08:15:06;27.45;;;18.73;;
75689;SDS011;64303;53.118;9.044;2024-02-15T08:17:38;22.88;;;15.02;;
75689;SDS011;64303;53.118;9.044;2024-02-15T08:20:06;26.13;;;19.20;;
75689;SDS011;64303;53.118;9.044;2024-02-15T08:22:34;27.02;;;16.90;;
75689;SDS011;64303;53.118;9.044;2024-02-15T08:25:00;28.48;;;15.20;;
75689;SDS011;64303;53.118;9.044;2024-02-15T08:27:31;24.27;;;14.18;;
75689;SDS011;64303;53.118;9.044;2024-02-15T08:29:59;22.30;;;18.63;;
75689;SDS011;64303;53.118;9.044;2024-02-15T08:32:28;26.15;;;18.50;;
75689;SDS011;64303;53.118;9.044;2024-02-15T08:34:55;36.13;;;18.95;;
75689;SDS011;64303;53.118;9.044;2024-02-15T08:37:21;28.33;;;17.70;;
75689;SDS011;64303;53.118;9.044;2024-02-15T08:39:48;28.13;;;18.42;;
75689;SDS011;64303;53.118;9.044;2024-02-15T08:42:15;30.52;;;18.73;;
75689;SDS011;64303;53.118;9.044;2024-02-15T08:44:43;28.13;;;17.70;;
75689;SDS011;64303;53.118;9.044;2024-02-15T08:47:09;26.73;;;16.92;;
75689;SDS011;64303;53.118;9.044;2024-02-15T08:49:36;28.13;;;14.85;;
75689;SDS011;64303;53.118;9.044;2024-02-15T08:52:03;31.23;;;18.38;;
75689;SDS011;64303;53.118;9.044;2024-02-15T08:54:30;27.08;;;18.13;;
75689;SDS011;64303;53.118;9.044;2024-02-15T08:56:58;28.83;;;18.10;;
75689;SDS011;64303;53.118;9.044;2024-02-15T08:59:26;30.90;;;19.13;;
75689;SDS011;64303;53.118;9.044;2024-02-15T09:01:56;28.75;;;20.40;;
75689;SDS011;64303;53.118;9.044;2024-02-15T09:04:22;31.45;;;18.27;;
75689;SDS011;64303;53.118;9.044;2024-02-15T09:06:51;30.38;;;18.40;;
75689;SDS011;64303;53.118;9.044;2024-02-15T09:09:18;25.95;;;17.35;;
75689;SDS011;64303;53.118;9.044;2024-02-15T09:11:45;40.03;;;20.33;;
75689;SDS011;64303;53.118;9.044;2024-02-15T09:14:11;31.60;;;20.23;;
75689;SDS011;64303;53.118;9.044;2024-02-15T09:16:38;33.00;;;20.98;;
75689;SDS011;64303;53.118;9.044;2024-02-15T09:19:06;29.42;;;20.52;;
75689;SDS011;64303;53.118;9.044;2024-02-15T09:21:33;31.48;;;16.40;;
75689;SDS011;64303;53.118;9.044;2024-02-15T09:24:02;30.38;;;18.92;;
75689;SDS011;64303;53.118;9.044;2024-02-15T09:26:28;35.80;;;20.77;;
75689;SDS011;64303;53.118;9.044;2024-02-15T09:28:55;36.72;;;21.65;;
75689;SDS011;64303;53.118;9.044;2024-02-15T09:31:22;35.05;;;22.63;;
75689;SDS011;64303;53.118;9.044;2024-02-15T09:33:50;33.70;;;21.88;;
75689;SDS011;64303;53.118;9.044;2024-02-15T09:36:18;35.95;;;16.75;;
75689;SDS011;64303;53.118;9.044;2024-02-15T09:38:44;36.20;;;20.80;;
75689;SDS011;64303;53.118;9.044;2024-02-15T09:41:12;38.47;;;17.73;;
75689;SDS011;64303;53.118;9.044;2024-02-15T09:43:38;32.72;;;18.70;;
75689;SDS011;64303;53.118;9.044;2024-02-15T09:46:05;39.53;;;20.48;;
75689;SDS011;64303;53.118;9.044;2024-02-15T09:48:32;35.72;;;22.90;;
75689;SDS011;64303;53.118;9.044;2024-02-15T09:50:58;34.13;;;20.45;;
75689;SDS011;64303;53.118;9.044;2024-02-15T09:53:26;39.83;;;21.98;;
75689;SDS011;64303;53.118;9.044;2024-02-15T09:55:54;39.03;;;25.05;;
75689;SDS011;64303;53.118;9.044;2024-02-15T09:58:21;37.17;;;22.25;;
75689;SDS011;64303;53.118;9.044;2024-02-15T10:00:48;35.42;;;21.02;;
75689;SDS011;64303;53.118;9.044;2024-02-15T10:03:16;35.95;;;21.30;;
75689;SDS011;64303;53.118;9.044;2024-02-15T10:05:46;41.83;;;21.95;;
75689;SDS011;64303;53.118;9.044;2024-02-15T10:08:14;42.30;;;21.40;;
75689;SDS011;64303;53.118;9.044;2024-02-15T10:10:42;35.28;;;22.42;;
75689;SDS011;64303;53.118;9.044;2024-02-15T10:13:10;35.00;;;22.48;;
75689;SDS011;64303;53.118;9.044;2024-02-15T10:15:39;31.75;;;20.27;;
75689;SDS011;64303;53.118;9.044;2024-02-15T10:18:06;36.22;;;21.25;;
75689;SDS011;64303;53.118;9.044;2024-02-15T10:20:35;42.58;;;24.65;;
75689;SDS011;64303;53.118;9.044;2024-02-15T10:23:10;34.75;;;22.42;;
75689;SDS011;64303;53.118;9.044;2024-02-15T10:25:37;31.85;;;19.80;;
75689;SDS011;64303;53.118;9.044;2024-02-15T10:28:05;39.15;;;19.27;;
75689;SDS011;64303;53.118;9.044;2024-02-15T10:30:33;33.28;;;21.13;;
75689;SDS011;64303;53.118;9.044;2024-02-15T10:33:00;32.47;;;21.33;;
75689;SDS011;64303;53.118;9.044;2024-02-15T10:35:27;31.35;;;19.17;;
75689;SDS011;64303;53.118;9.044;2024-02-15T10:38:05;33.78;;;21.27;;
75689;SDS011;64303;53.118;9.044;2024-02-15T10:40:33;29.55;;;20.65;;
75689;SDS011;64303;53.118;9.044;2024-02-15T10:43:00;28.45;;;20.05;;
75689;SDS011;64303;53.118;9.044;2024-02-15T10:45:31;30.70;;;19.67;;
75689;SDS011;64303;53.118;9.044;2024-02-15T10:47:58;30.15;;;18.30;;
75689;SDS011;64303;53.118;9.044;2024-02-15T10:50:25;26.23;;;14.65;;
75689;SDS011;64303;53.118;9.044;2024-02-15T10:52:54;32.55;;;19.98;;
75689;SDS011;64303;53.118;9.044;2024-02-15T10:55:23;30.20;;;17.83;;
75689;SDS011;64303;53.118;9.044;2024-02-15T10:57:54;30.15;;;20.52;;
75689;SDS011;64303;53.118;9.044;2024-02-15T11:00:23;24.20;;;19.73;;
75689;SDS011;64303;53.118;9.044;2024-02-15T11:05:29;24.42;;;17.48;;
75689;SDS011;64303;53.118;9.044;2024-02-15T11:08:00;22.23;;;17.27;;
75689;SDS011;64303;53.118;9.044;2024-02-15T11:10:27;29.33;;;21.38;;
75689;SDS011;64303;53.118;9.044;2024-02-15T11:12:54;25.38;;;16.00;;
75689;SDS011;64303;53.118;9.044;2024-02-15T11:15:39;28.80;;;18.05;;
75689;SDS011;64303;53.118;9.044;2024-02-15T11:18:08;23.40;;;16.17;;
75689;SDS011;64303;53.118;9.044;2024-02-15T11:20:51;26.88;;;19.00;;
75689;SDS011;64303;53.118;9.044;2024-02-15T11:23:27;24.00;;;15.98;;
75689;SDS011;64303;53.118;9.044;2024-02-15T11:25:55;27.30;;;19.17;;
75689;SDS011;64303;53.118;9.044;2024-02-15T11:28:37;20.27;;;14.90;;
75689;SDS011;64303;53.118;9.044;2024-02-15T11:31:14;22.85;;;17.70;;
75689;SDS011;64303;53.118;9.044;2024-02-15T11:40:18;24.73;;;18.02;;
75689;SDS011;64303;53.118;9.044;2024-02-15T11:42:48;17.48;;;13.93;;
75689;SDS011;64303;53.118;9.044;2024-02-15T11:45:16;22.05;;;17.42;;
75689;SDS011;64303;53.118;9.044;2024-02-15T11:47:46;20.08;;;17.65;;
75689;SDS011;64303;53.118;9.044;2024-02-15T11:50:17;19.95;;;17.90;;
75689;SDS011;64303;53.118;9.044;2024-02-15T11:52:45;20.42;;;16.95;;
75689;SDS011;64303;53.118;9.044;2024-02-15T11:55:14;24.90;;;17.83;;
75689;SDS011;64303;53.118;9.044;2024-02-15T11:57:53;20.25;;;10.77;;
75689;SDS011;64303;53.118;9.044;2024-02-15T12:00:28;18.55;;;15.25;;
75689;SDS011;64303;53.118;9.044;2024-02-15T12:03:13;20.45;;;17.30;;
75689;SDS011;64303;53.118;9.044;2024-02-15T12:06:00;19.23;;;15.60;;
75689;SDS011;64303;53.118;9.044;2024-02-15T12:08:45;20.23;;;15.40;;
75689;SDS011;64303;53.118;9.044;2024-02-15T12:11:29;19.15;;;14.70;;
75689;SDS011;64303;53.118;9.044;2024-02-15T12:14:14;18.40;;;15.70;;
75689;SDS011;64303;53.118;9.044;2024-02-15T12:17:02;17.80;;;15.85;;
75689;SDS011;64303;53.118;9.044;2024-02-15T12:19:49;19.83;;;15.32;;
75689;SDS011;64303;53.118;9.044;2024-02-15T12:22:19;18.00;;;13.32;;
75689;SDS011;64303;53.118;9.044;2024-02-15T12:24:53;19.80;;;17.33;;
75689;SDS011;64303;53.118;9.044;2024-02-15T12:29:52;17.25;;;14.48;;
75689;SDS011;64303;53.118;9.044;2024-02-15T12:32:20;16.75;;;14.93;;
75689;SDS011;64303;53.118;9.044;2024-02-15T12:37:18;16.52;;;13.65;;
75689;SDS011;64303;53.118;9.044;2024-02-15T12:39:47;17.63;;;13.65;;
75689;SDS011;64303;53.118;9.044;2024-02-15T12:42:14;15.52;;;13.40;;
75689;SDS011;64303;53.118;9.044;2024-02-15T12:44:45;15.95;;;14.43;;
75689;SDS011;64303;53.118;9.044;2024-02-15T12:47:19;15.77;;;14.15;;
75689;SDS011;64303;53.118;9.044;2024-02-15T12:49:47;17.40;;;13.23;;
75689;SDS011;64303;53.118;9.044;2024-02-15T12:52:35;16.10;;;14.52;;
75689;SDS011;64303;53.118;9.044;2024-02-15T12:55:06;13.30;;;10.55;;
75689;SDS011;64303;53.118;9.044;2024-02-15T12:57:34;17.60;;;16.02;;
75689;SDS011;64303;53.118;9.044;2024-02-15T13:00:02;13.25;;;11.85;;
75689;SDS011;64303;53.118;9.044;2024-02-15T13:02:38;12.75;;;8.88;;
75689;SDS011;64303;53.118;9.044;2024-02-15T13:05:06;13.38;;;10.90;;
75689;SDS011;64303;53.118;9.044;2024-02-15T13:07:35;13.52;;;11.60;;
75689;SDS011;64303;53.118;9.044;2024-02-15T13:10:02;12.45;;;10.60;;
75689;SDS011;64303;53.118;9.044;2024-02-15T13:12:32;10.90;;;9.73;;
75689;SDS011;64303;53.118;9.044;2024-02-15T13:15:02;14.93;;;12.77;;
75689;SDS011;64303;53.118;9.044;2024-02-15T13:17:29;13.98;;;12.77;;
75689;SDS011;64303;53.118;9.044;2024-02-15T13:19:56;13.20;;;11.90;;
75689;SDS011;64303;53.118;9.044;2024-02-15T13:22:29;14.50;;;12.15;;
75689;SDS011;64303;53.118;9.044;2024-02-15T13:24:58;12.82;;;11.73;;
75689;SDS011;64303;53.118;9.044;2024-02-15T13:29:51;12.38;;;11.27;;
75689;SDS011;64303;53.118;9.044;2024-02-15T13:32:18;13.07;;;11.25;;
75689;SDS011;64303;53.118;9.044;2024-02-15T13:34:47;14.30;;;12.32;;
75689;SDS011;64303;53.118;9.044;2024-02-15T13:37:17;10.45;;;7.93;;
75689;SDS011;64303;53.118;9.044;2024-02-15T13:39:46;13.85;;;12.45;;
75689;SDS011;64303;53.118;9.044;2024-02-15T13:42:14;14.65;;;13.15;;
75689;SDS011;64303;53.118;9.044;2024-02-15T13:44:42;12.40;;;10.90;;
75689;SDS011;64303;53.118;9.044;2024-02-15T13:47:09;13.85;;;12.45;;
75689;SDS011;64303;53.118;9.044;2024-02-15T13:49:36;14.23;;;12.82;;
75689;SDS011;64303;53.118;9.044;2024-02-15T13:52:04;12.50;;;9.52;;
75689;SDS011;64303;53.118;9.044;2024-02-15T13:54:31;16.60;;;14.32;;
75689;SDS011;64303;53.118;9.044;2024-02-15T13:56:59;15.85;;;14.43;;
75689;SDS011;64303;53.118;9.044;2024-02-15T13:59:28;17.13;;;13.65;;
75689;SDS011;64303;53.118;9.044;2024-02-15T14:01:55;11.95;;;10.40;;
75689;SDS011;64303;53.118;9.044;2024-02-15T14:04:22;13.98;;;12.73;;
75689;SDS011;64303;53.118;9.044;2024-02-15T14:06:48;12.05;;;10.85;;
75689;SDS011;64303;53.118;9.044;2024-02-15T14:09:15;14.52;;;13.15;;
75689;SDS011;64303;53.118;9.044;2024-02-15T14:11:42;11.68;;;10.63;;
75689;SDS011;64303;53.118;9.044;2024-02-15T14:14:09;11.73;;;9.40;;
75689;SDS011;64303;53.118;9.044;2024-02-15T14:16:37;15.27;;;13.77;;
75689;SDS011;64303;53.118;9.044;2024-02-15T14:19:04;13.82;;;12.63;;
75689;SDS011;64303;53.118;9.044;2024-02-15T14:21:31;15.00;;;13.70;;
75689;SDS011;64303;53.118;9.044;2024-02-15T14:24:05;12.45;;;10.52;;
75689;SDS011;64303;53.118;9.044;2024-02-15T14:26:34;13.50;;;12.13;;
75689;SDS011;64303;53.118;9.044;2024-02-15T14:29:01;13.70;;;12.45;;
75689;SDS011;64303;53.118;9.044;2024-02-15T14:31:28;15.75;;;12.32;;
75689;SDS011;64303;53.118;9.044;2024-02-15T14:34:15;12.52;;;11.38;;
75689;SDS011;64303;53.118;9.044;2024-02-15T14:36:43;13.02;;;11.73;;
75689;SDS011;64303;53.118;9.044;2024-02-15T14:39:11;14.80;;;13.50;;
75689;SDS011;64303;53.118;9.044;2024-02-15T14:41:39;12.38;;;9.75;;
75689;SDS011;64303;53.118;9.044;2024-02-15T14:44:06;11.65;;;10.65;;
75689;SDS011;64303;53.118;9.044;2024-02-15T14:46:34;10.40;;;8.80;;
75689;SDS011;64303;53.118;9.044;2024-02-15T14:49:01;14.52;;;13.18;;
75689;SDS011;64303;53.118;9.044;2024-02-15T14:51:29;9.93;;;8.77;;
75689;SDS011;64303;53.118;9.044;2024-02-15T14:53:57;15.30;;;14.10;;
75689;SDS011;64303;53.118;9.044;2024-02-15T14:56:24;13.25;;;11.10;;
75689;SDS011;64303;53.118;9.044;2024-02-15T14:58:51;13.45;;;12.20;;